Time;durP1;ratioP1;P1;durP2;ratioP2;P2;SDS_P1;SDS_P2;PMS_P1;PMS_P2;Temp;Humidity;BMP_temperature;BMP_pressure;BME280_temperature;BME280_humidity;BME280_pressure;Samples;Min_cycle;Max_cycle;Signal;HPM_P1;HPM_P2
2022/02/20 00:02:16;;;;;;;4.95;2.02;;;;;;;3.75;53.97;98816.91;1780048;79;21103;-37
2022/02/20 00:04:42;;;;;;;5.67;2.12;;;;;;;3.74;54.26;98812.64;1775366;80;21084;-37
2022/02/20 00:07:09;;;;;;;8.15;2.08;;;;;;;3.73;54.33;98827.16;1766845;80;21116;-37
2022/02/20 00:09:39;;;;;;;7.25;2.05;;;;;;;3.72;54.23;98815.44;1766601;78;21479;-37
2022/02/20 00:12:08;;;;;;;7.47;2.00;;;;;;;3.73;54.41;98820.45;1759406;80;21467;-37
2022/02/20 00:14:34;;;;;;;6.75;2.50;;;;;;;3.72;54.31;98820.25;1764219;80;21076;-37
2022/02/20 00:17:01;;;;;;;4.70;2.02;;;;;;;3.73;54.37;98826.36;1774283;79;21837;-38
2022/02/20 00:19:28;;;;;;;7.67;2.90;;;;;;;3.73;54.32;98831.73;1787783;80;21184;-37
2022/02/20 00:21:55;;;;;;;8.30;2.40;;;;;;;3.75;54.38;98830.86;1776424;80;21041;-37
2022/02/20 00:24:21;;;;;;;5.70;1.80;;;;;;;3.76;54.38;98829.20;1765259;80;21012;-37
2022/02/20 00:26:48;;;;;;;4.45;2.00;;;;;;;3.76;54.48;98835.91;1771121;80;21009;-38
2022/02/20 00:29:14;;;;;;;5.90;2.00;;;;;;;3.75;54.39;98832.20;1743520;81;21037;-37
2022/02/20 00:31:41;;;;;;;6.78;2.25;;;;;;;3.72;54.43;98828.29;1756724;81;21130;-37
2022/02/20 00:34:07;;;;;;;10.82;2.22;;;;;;;3.73;54.62;98830.39;1752797;81;21083;-37
2022/02/20 00:36:34;;;;;;;6.80;1.87;;;;;;;3.72;54.71;98843.59;1747446;81;21018;-37
2022/02/20 00:39:01;;;;;;;6.67;2.17;;;;;;;3.69;54.71;98846.34;1753749;79;21543;-37
2022/02/20 00:41:28;;;;;;;7.40;2.25;;;;;;;3.68;54.88;98856.84;1746997;81;21092;-37
2022/02/20 00:43:54;;;;;;;7.87;2.90;;;;;;;3.66;54.93;98852.38;1752722;81;21199;-37
2022/02/20 00:46:21;;;;;;;7.12;2.08;;;;;;;3.64;54.91;98850.56;1747608;81;20895;-37
2022/02/20 00:48:48;;;;;;;5.10;2.00;;;;;;;3.61;55.04;98857.92;1752358;81;20950;-37
2022/02/20 00:51:15;;;;;;;8.08;2.55;;;;;;;3.61;55.17;98857.92;1747754;81;21057;-37
2022/02/20 00:53:42;;;;;;;5.67;2.22;;;;;;;3.59;55.24;98862.81;1753715;80;21021;-37
2022/02/20 00:56:08;;;;;;;5.08;2.37;;;;;;;3.55;55.45;98865.91;1762704;81;21802;-37
2022/02/20 00:58:35;;;;;;;6.92;2.30;;;;;;;3.53;55.54;98869.48;1745021;81;21016;-37
2022/02/20 01:01:04;;;;;;;5.08;2.37;;;;;;;3.55;55.59;98868.59;1745327;81;20977;-37
2022/02/20 01:03:31;;;;;;;4.62;2.02;;;;;;;3.55;55.75;98866.47;1743687;81;21088;-37
2022/02/20 01:05:58;;;;;;;7.00;2.35;;;;;;;3.54;55.75;98871.04;1747176;81;21013;-37
2022/02/20 01:08:25;;;;;;;5.35;2.45;;;;;;;3.58;55.88;98882.70;1755925;79;21512;-37
2022/02/20 01:10:53;;;;;;;8.00;2.60;;;;;;;3.57;56.10;98882.47;1753938;81;20957;-37
2022/02/20 01:13:22;;;;;;;6.67;2.35;;;;;;;3.60;56.03;98887.17;1753686;81;20966;-37
2022/02/20 01:15:50;;;;;;;6.50;2.20;;;;;;;3.61;56.11;98898.13;1745781;81;20934;-37
2022/02/20 01:18:17;;;;;;;5.25;2.10;;;;;;;3.62;56.11;98891.66;1744143;81;21016;-37
2022/02/20 01:20:44;;;;;;;4.50;2.35;;;;;;;3.63;56.25;98890.53;1749819;81;21137;-37
2022/02/20 01:23:12;;;;;;;5.78;2.52;;;;;;;3.67;56.08;98890.14;1766436;81;20965;-37
2022/02/20 01:25:38;;;;;;;5.83;2.20;;;;;;;3.69;56.15;98901.30;1755868;81;20934;-37
2022/02/20 01:28:05;;;;;;;6.80;2.55;;;;;;;3.72;56.03;98892.62;1750894;80;21041;-37
2022/02/20 01:30:32;;;;;;;7.90;2.60;;;;;;;3.76;55.96;98900.80;1756867;80;21534;-37
2022/02/20 01:32:58;;;;;;;3.92;2.08;;;;;;;3.77;56.04;98894.33;1767822;80;21847;-37
2022/02/20 01:35:26;;;;;;;5.78;2.70;;;;;;;3.78;55.83;98906.05;1761230;80;21021;-37
2022/02/20 01:37:53;;;;;;;9.03;2.58;;;;;;;3.83;55.74;98902.39;1775095;80;21037;-37
2022/02/20 01:40:20;;;;;;;7.72;2.50;;;;;;;3.83;55.58;98909.88;1757583;80;21012;-37
2022/02/20 01:42:48;;;;;;;6.40;2.35;;;;;;;3.86;55.33;98897.19;1757051;79;21048;-37
2022/02/20 01:45:16;;;;;;;6.25;2.05;;;;;;;3.90;55.61;98918.20;1773349;80;21531;-37
2022/02/20 01:47:43;;;;;;;4.90;2.30;;;;;;;3.90;55.50;98921.45;1761902;80;20965;-37
2022/02/20 01:50:11;;;;;;;6.78;2.40;;;;;;;3.91;55.42;98909.06;1758319;80;20955;-37
2022/02/20 01:52:40;;;;;;;7.58;2.50;;;;;;;3.90;55.61;98917.42;1757323;80;20968;-37
2022/02/20 01:55:08;;;;;;;5.87;2.37;;;;;;;3.89;55.54;98917.97;1756930;80;21021;-37
2022/02/20 01:57:37;;;;;;;;;;;;;;;3.87;55.50;98921.52;1758457;80;21154;-37
2022/02/20 02:00:20;;;;;;;7.42;2.87;;;;;;;3.86;55.52;98924.00;1756299;80;20147;-37
2022/02/20 02:02:50;;;;;;;5.03;2.40;;;;;;;3.77;55.85;98925.16;1772047;79;21012;-37
2022/02/20 02:05:22;;;;;;;7.40;2.83;;;;;;;3.78;55.85;98924.03;1765345;80;20905;-37
2022/02/20 02:07:52;;;;;;;8.00;2.72;;;;;;;3.77;55.66;98916.56;1758267;80;21083;-37
2022/02/20 02:10:22;;;;;;;6.85;2.67;;;;;;;3.78;55.93;98920.80;1732284;80;21138;-37
2022/02/20 02:13:07;;;;;;;7.72;2.98;;;;;;;3.71;55.94;98921.88;1757924;80;21033;-37
2022/02/20 02:15:50;;;;;;;7.03;2.45;;;;;;;3.67;56.06;98921.52;1775925;79;20992;-37
2022/02/20 02:18:42;;;;;;;7.53;2.45;;;;;;;3.62;55.96;98923.04;1765180;80;20977;-37
2022/02/20 02:21:29;;;;;;;8.48;2.83;;;;;;;3.60;56.23;98943.45;1756974;80;21293;-37
2022/02/20 02:24:15;;;;;;;7.72;2.70;;;;;;;3.53;56.39;98944.53;1778307;80;21084;-37
2022/02/20 02:26:43;;;;;;;7.83;2.45;;;;;;;3.49;56.67;98943.58;1768462;80;21016;-37
2022/02/20 02:29:30;;;;;;;9.03;2.75;;;;;;;3.45;56.84;98945.34;1692250;83;21057;-37
2022/02/20 02:31:57;;;;;;;6.47;2.80;;;;;;;3.41;57.02;98952.45;1688955;84;21065;-37
2022/02/20 02:34:24;;;;;;;6.58;2.70;;;;;;;3.37;57.24;98945.62;1705200;80;21049;-37
2022/02/20 02:36:52;;;;;;;5.95;2.40;;;;;;;3.35;57.27;98955.86;1747240;80;20989;-37
2022/02/20 02:39:18;;;;;;;6.92;2.70;;;;;;;3.29;57.52;98949.68;1732622;80;21084;-37
2022/02/20 02:41:45;;;;;;;6.55;2.77;;;;;;;3.28;57.65;98953.45;1759013;80;20969;-37
2022/02/20 02:44:12;;;;;;;8.20;2.90;;;;;;;3.24;57.77;98952.53;1763213;80;21006;-37
2022/02/20 02:46:39;;;;;;;6.90;2.85;;;;;;;3.23;57.86;98950.41;1752110;80;21008;-37
2022/02/20 02:49:07;;;;;;;7.15;2.40;;;;;;;3.19;58.06;98963.42;1752447;80;21149;-37
2022/02/20 02:51:34;;;;;;;6.60;2.52;;;;;;;3.18;58.21;98961.84;1755864;80;20961;-37
2022/02/20 02:54:09;;;;;;;7.85;2.67;;;;;;;3.13;58.33;98968.16;1764663;80;20998;-37
2022/02/20 02:56:38;;;;;;;7.70;2.70;;;;;;;3.06;58.63;98968.64;1780412;80;21005;-36
2022/02/20 02:59:06;;;;;;;9.15;3.08;;;;;;;3.02;58.80;98973.06;1756568;79;21091;-37
2022/02/20 03:01:32;;;;;;;7.00;2.80;;;;;;;3.00;58.96;98968.56;1775450;80;21125;-37
2022/02/20 03:03:59;;;;;;;8.35;3.52;;;;;;;2.97;59.11;98965.20;1757429;80;20966;-37
2022/02/20 03:06:26;;;;;;;6.53;2.67;;;;;;;2.94;59.21;98973.88;1751748;79;21020;-37
2022/02/20 03:09:06;;;;;;;9.90;3.00;;;;;;;2.89;59.38;98966.02;1763741;80;21565;-37
2022/02/20 03:11:34;;;;;;;7.55;2.80;;;;;;;2.82;59.57;98977.74;1765154;80;21088;-37
2022/02/20 03:14:01;;;;;;;8.70;3.65;;;;;;;2.82;59.57;98979.08;1751084;80;21090;-37
2022/02/20 03:16:29;;;;;;;9.25;3.15;;;;;;;2.80;59.67;98971.94;1768852;78;20961;-37
2022/02/20 03:18:55;;;;;;;8.30;2.77;;;;;;;2.79;59.65;98976.26;1761275;80;20975;-37
2022/02/20 03:21:24;;;;;;;5.25;2.75;;;;;;;2.81;59.63;98980.17;1759125;79;21024;-37
2022/02/20 03:23:52;;;;;;;6.45;2.70;;;;;;;2.82;59.56;98983.64;1771900;80;21014;-37
2022/02/20 03:26:21;;;;;;;7.72;3.00;;;;;;;2.80;59.65;98990.67;1750636;80;21127;-37
2022/02/20 03:28:48;;;;;;;7.55;2.80;;;;;;;2.82;59.65;98991.12;1749549;80;21010;-37
2022/02/20 03:31:16;;;;;;;5.80;2.70;;;;;;;2.80;59.75;98987.20;1746568;81;21036;-38
2022/02/20 03:33:44;;;;;;;8.30;2.70;;;;;;;2.81;59.73;98992.80;1755533;81;21550;-38
2022/02/20 03:36:14;;;;;;;8.68;3.05;;;;;;;2.83;59.71;98998.06;1743248;81;21009;-38
2022/02/20 03:38:42;;;;;;;7.58;2.40;;;;;;;2.87;59.71;98997.66;1744676;81;21800;-38
2022/02/20 03:43:36;;;;;;;5.60;2.47;;;;;;;2.92;59.73;99006.08;1788231;77;23220;-37
2022/02/20 03:46:04;;;;;;;6.08;3.08;;;;;;;2.78;60.03;99004.91;1730577;81;20968;-37
2022/02/20 03:48:33;;;;;;;6.65;2.98;;;;;;;2.79;60.04;99004.36;1741300;81;21864;-37
2022/02/20 03:51:10;;;;;;;9.03;2.85;;;;;;;2.79;59.94;99003.81;1729828;81;20976;-38
2022/02/20 03:53:37;;;;;;;8.95;2.67;;;;;;;2.78;59.99;99007.59;1738146;80;21025;-38
2022/02/20 03:56:06;;;;;;;5.90;2.50;;;;;;;2.78;60.02;99008.92;1741775;80;21017;-38
2022/02/20 03:58:35;;;;;;;7.65;2.40;;;;;;;2.77;60.10;99011.36;1731073;81;20933;-38
2022/02/20 04:01:03;;;;;;;5.85;2.58;;;;;;;2.76;60.07;99007.11;1748493;81;21091;-38
2022/02/20 04:03:33;;;;;;;8.35;2.70;;;;;;;2.73;60.17;99006.41;1729002;79;20960;-38
2022/02/20 04:06:01;;;;;;;6.22;2.67;;;;;;;2.72;60.15;99011.52;1744374;81;20981;-38
2022/02/20 04:08:30;;;;;;;8.18;2.90;;;;;;;2.69;60.21;99008.15;1735303;79;21499;-38
2022/02/20 04:10:59;;;;;;;7.78;2.80;;;;;;;2.69;60.16;99003.34;1739475;81;21016;-38
2022/02/20 04:13:34;;;;;;;7.67;3.00;;;;;;;2.64;60.33;99009.64;1729684;81;21157;-38
2022/02/20 04:16:00;;;;;;;5.42;2.37;;;;;;;2.56;60.60;98996.52;1734749;81;20985;-38
2022/02/20 04:18:30;;;;;;;5.25;2.50;;;;;;;2.54;60.73;98997.38;1733839;81;21069;-38
2022/02/20 04:21:10;;;;;;;8.65;2.87;;;;;;;2.46;61.00;99010.20;1737966;81;21131;-38
2022/02/20 04:23:37;;;;;;;8.28;2.92;;;;;;;2.42;61.23;99016.50;1730863;81;21080;-38
2022/02/20 04:26:04;;;;;;;11.45;3.00;;;;;;;2.39;61.45;99009.08;1729616;81;21857;-37
2022/02/20 04:28:32;;;;;;;6.90;2.67;;;;;;;2.36;61.66;99008.38;1748866;80;21039;-37
2022/02/20 04:30:59;;;;;;;8.88;3.08;;;;;;;2.31;61.83;99009.33;1745395;81;21032;-38
2022/02/20 04:33:26;;;;;;;7.12;2.60;;;;;;;2.26;62.12;99014.03;1738473;81;21047;-38
2022/02/20 04:35:55;;;;;;;6.00;2.80;;;;;;;2.20;62.38;99017.41;1752946;81;21025;-38
2022/02/20 04:38:23;;;;;;;9.25;2.80;;;;;;;2.15;62.57;99013.54;1737824;81;21230;-38
2022/02/20 04:40:50;;;;;;;5.58;2.50;;;;;;;2.12;62.78;99016.84;1732132;81;20993;-38
2022/02/20 04:43:19;;;;;;;8.43;3.00;;;;;;;2.08;63.10;99015.91;1754654;80;20941;-37
2022/02/20 04:45:47;;;;;;;7.20;2.90;;;;;;;2.04;63.21;99017.05;1770596;80;21308;-37
2022/02/20 04:48:16;;;;;;;8.00;2.70;;;;;;;1.98;63.49;99029.01;1766159;80;21087;-37
2022/02/20 04:50:43;;;;;;;7.08;3.27;;;;;;;1.95;63.76;99032.28;1757452;80;21104;-38
2022/02/20 04:53:15;;;;;;;6.75;3.25;;;;;;;1.92;63.87;99030.24;1772404;80;20944;-37
2022/02/20 04:55:43;;;;;;;7.30;2.80;;;;;;;1.56;63.96;98985.55;1758478;80;21085;-37
2022/02/20 04:58:10;;;;;;;6.20;2.90;;;;;;;1.93;64.00;99047.08;1764945;80;21024;-37
2022/02/20 05:00:38;;;;;;;6.90;2.75;;;;;;;1.89;64.07;99047.45;1768211;80;21021;-37
2022/02/20 05:03:23;;;;;;;7.03;2.58;;;;;;;1.88;64.15;99046.67;1773039;80;21119;-37
2022/02/20 05:06:08;;;;;;;7.30;2.90;;;;;;;1.86;64.23;99053.41;1770165;80;20992;-37
2022/02/20 05:08:39;;;;;;;8.83;3.52;;;;;;;1.83;64.36;99056.16;1773472;80;21049;-37
2022/02/20 05:11:05;;;;;;;9.80;4.12;;;;;;;1.77;64.49;99060.06;1768108;80;21829;-37
2022/02/20 05:13:34;;;;;;;8.80;3.50;;;;;;;1.80;64.57;99066.66;1758019;80;21072;-37
2022/02/20 05:16:01;;;;;;;8.18;3.22;;;;;;;1.77;64.75;99061.94;1783800;80;21157;-37
2022/02/20 05:18:28;;;;;;;11.80;3.95;;;;;;;1.78;64.81;99068.32;1744302;80;20968;-37
2022/02/20 05:20:55;;;;;;;11.60;3.90;;;;;;;1.79;64.91;99070.45;1770281;80;21044;-37
2022/02/20 05:23:24;;;;;;;9.10;3.70;;;;;;;1.79;64.91;99071.78;1764792;80;21526;-37
2022/02/20 05:25:51;;;;;;;8.00;3.58;;;;;;;1.78;64.89;99076.88;1784972;80;21012;-38
2022/02/20 05:28:18;;;;;;;6.37;2.95;;;;;;;1.78;65.00;99076.88;1763509;80;21095;-38
2022/02/20 05:30:46;;;;;;;7.70;3.27;;;;;;;1.78;65.03;99081.69;1786271;80;21068;-38
2022/02/20 05:33:14;;;;;;;8.65;3.10;;;;;;;1.79;65.06;99082.48;1763900;80;20989;-38
2022/02/20 05:35:42;;;;;;;5.62;2.40;;;;;;;1.77;65.04;99076.09;1765822;80;20949;-37
2022/02/20 05:38:10;;;;;;;9.48;3.22;;;;;;;1.79;65.02;99090.49;1759742;80;21008;-37
2022/02/20 05:40:38;;;;;;;9.08;2.90;;;;;;;1.79;65.08;99085.94;1770783;79;21146;-37
2022/02/20 05:43:06;;;;;;;9.30;2.98;;;;;;;1.81;65.01;99077.59;1757432;78;20958;-37
2022/02/20 05:45:34;;;;;;;6.22;2.90;;;;;;;1.82;64.94;99078.63;1731517;82;21036;-37
2022/02/20 05:48:05;;;;;;;5.45;2.52;;;;;;;1.87;64.98;99087.84;1717260;79;21121;-37
2022/02/20 05:50:34;;;;;;;9.23;3.67;;;;;;;1.90;64.89;99097.12;1719792;82;21096;-37
2022/02/20 05:53:00;;;;;;;9.73;3.22;;;;;;;1.92;64.92;99089.59;1726432;82;21792;-37
2022/02/20 05:55:29;;;;;;;9.65;3.30;;;;;;;1.96;64.93;99102.03;1729088;82;20949;-37
2022/02/20 05:57:56;;;;;;;8.93;3.72;;;;;;;2.00;64.98;99102.20;1718620;82;21016;-37
2022/02/20 06:00:35;;;;;;;7.70;3.50;;;;;;;2.04;64.96;99107.16;1686963;82;20977;-37
2022/02/20 06:03:02;;;;;;;9.95;3.55;;;;;;;2.07;64.82;99099.34;1724321;82;21081;-37
2022/02/20 06:05:31;;;;;;;7.67;3.58;;;;;;;2.10;64.90;99109.40;1721569;82;21231;-37
2022/02/20 06:08:16;;;;;;;7.60;3.50;;;;;;;2.14;64.72;99110.35;1728234;80;21941;-37
2022/02/20 06:10:46;;;;;;;9.10;3.10;;;;;;;2.15;64.69;99113.81;1733922;79;21080;-37
2022/02/20 06:13:24;;;;;;;7.50;3.30;;;;;;;2.18;64.57;99108.63;1729011;82;21009;-37
2022/02/20 06:15:58;;;;;;;11.63;3.77;;;;;;;2.24;64.43;99109.83;1716348;82;21530;-37
2022/02/20 06:18:28;;;;;;;;;;;;;;;2.28;64.43;99111.56;1745428;82;21460;-37
2022/02/20 06:20:57;;;;;;;12.33;3.47;;;;;;;2.29;64.29;99115.83;1737769;81;20135;-37
2022/02/20 06:23:32;;;;;;;9.30;3.40;;;;;;;2.23;64.46;99114.38;1717770;82;20974;-39
2022/02/20 06:26:10;;;;;;;9.55;3.30;;;;;;;2.29;64.44;99119.05;1660628;85;21032;-39
2022/02/20 06:28:37;;;;;;;6.92;3.27;;;;;;;2.34;64.53;99125.05;1728442;82;21120;-39
2022/02/20 06:31:04;;;;;;;10.50;3.72;;;;;;;2.40;64.59;99125.70;1724662;82;21856;-37
2022/02/20 06:33:32;;;;;;;6.08;3.10;;;;;;;2.47;64.50;99126.80;1727666;81;21449;-37
2022/02/20 06:36:01;;;;;;;7.78;3.15;;;;;;;2.52;64.53;99137.91;1722881;80;21456;-37
2022/02/20 06:38:30;;;;;;;10.50;3.37;;;;;;;2.57;64.39;99137.77;1730742;81;21025;-37
2022/02/20 06:40:57;;;;;;;9.25;3.02;;;;;;;2.58;64.33;99138.01;1724367;82;21112;-39
2022/02/20 06:43:28;;;;;;;10.30;2.83;;;;;;;2.57;64.29;99139.89;1753073;80;21148;-39
2022/02/20 06:45:57;;;;;;;12.07;3.60;;;;;;;2.61;64.37;99146.77;1738056;80;21016;-39
2022/02/20 06:48:25;;;;;;;6.78;3.02;;;;;;;2.62;64.25;99146.44;1754377;80;21067;-39
2022/02/20 06:51:11;;;;;;;7.50;3.35;;;;;;;2.65;64.26;99138.34;1779226;80;21542;-39
2022/02/20 06:53:55;;;;;;;8.98;3.50;;;;;;;2.71;64.19;99149.13;1789036;78;21048;-37
2022/02/20 06:56:41;;;;;;;7.42;3.02;;;;;;;2.75;64.27;99151.44;1760054;80;21490;-38
2022/02/20 06:59:08;;;;;;;7.85;3.65;;;;;;;2.77;64.22;99147.87;1787129;80;21074;-38
2022/02/20 07:01:35;;;;;;;8.15;3.60;;;;;;;2.81;64.30;99146.15;1785448;80;20989;-37
2022/02/20 07:04:04;;;;;;;7.05;3.22;;;;;;;2.84;64.22;99140.19;1769092;80;20945;-38
2022/02/20 07:06:32;;;;;;;8.13;2.90;;;;;;;2.90;64.01;99137.60;1786580;80;21514;-37
2022/02/20 07:08:58;;;;;;;7.85;3.15;;;;;;;2.97;63.84;99141.92;1785090;79;21083;-38
2022/02/20 07:11:27;;;;;;;9.80;3.10;;;;;;;3.00;63.52;99125.22;1761611;80;21064;-37
2022/02/20 07:13:54;;;;;;;6.83;2.83;;;;;;;3.03;63.43;99128.62;1756599;80;20976;-38
2022/02/20 07:16:21;;;;;;;7.50;2.77;;;;;;;3.09;63.23;99133.83;1756704;80;20934;-37
2022/02/20 07:18:48;;;;;;;7.30;2.90;;;;;;;3.13;63.08;99130.75;1758120;80;21084;-37
2022/02/20 07:21:15;;;;;;;10.13;3.85;;;;;;;3.17;62.81;99133.81;1768852;79;21122;-37
2022/02/20 07:23:42;;;;;;;10.72;4.05;;;;;;;3.20;62.58;99135.85;1767622;80;21005;-37
2022/02/20 07:26:09;;;;;;;5.78;3.20;;;;;;;3.25;62.13;99129.00;1768373;80;21026;-38
2022/02/20 07:28:35;;;;;;;7.53;2.98;;;;;;;3.31;62.16;99129.63;1778621;80;20968;-37
2022/02/20 07:31:02;;;;;;;10.00;3.10;;;;;;;3.36;62.13;99128.12;1765741;80;21087;-37
2022/02/20 07:33:28;;;;;;;6.87;3.08;;;;;;;3.41;62.22;99125.28;1754717;80;21538;-37
2022/02/20 07:35:55;;;;;;;6.87;3.17;;;;;;;3.46;62.46;99121.09;1769100;80;21531;-37
2022/02/20 07:38:24;;;;;;;9.63;2.90;;;;;;;3.51;62.30;99127.63;1755741;81;20984;-37
2022/02/20 07:40:51;;;;;;;8.20;3.50;;;;;;;3.51;62.06;99122.27;1780127;78;21035;-38
2022/02/20 07:43:18;;;;;;;6.65;3.12;;;;;;;3.57;62.10;99116.98;1742403;80;21047;-38
2022/02/20 07:45:44;;;;;;;6.70;3.60;;;;;;;3.62;61.89;99128.88;1737969;81;21140;-38
2022/02/20 07:48:11;;;;;;;9.00;3.40;;;;;;;3.69;61.76;99131.84;1762747;80;21047;-38
2022/02/20 07:50:38;;;;;;;6.53;3.08;;;;;;;3.75;61.53;99135.94;1725456;81;20983;-37
2022/02/20 07:53:06;;;;;;;8.83;3.92;;;;;;;3.88;61.48;99137.63;1769125;80;20987;-38
2022/02/20 07:55:33;;;;;;;8.98;3.47;;;;;;;4.00;60.66;99132.16;1759664;81;21056;-37
2022/02/20 07:58:07;;;;;;;8.95;3.60;;;;;;;4.11;60.30;99138.75;1766256;79;21774;-38
2022/02/20 08:00:36;;;;;;;7.65;3.70;;;;;;;4.22;59.96;99133.23;1757474;80;21581;-38
2022/02/20 08:03:03;;;;;;;8.75;3.20;;;;;;;4.34;60.32;99129.33;1756812;80;20940;-37
2022/02/20 08:05:31;;;;;;;8.58;3.35;;;;;;;4.48;59.66;99144.64;1756445;80;21052;-38
2022/02/20 08:07:57;;;;;;;9.68;4.00;;;;;;;4.63;59.82;99143.30;1781960;80;21113;-37
2022/02/20 08:10:24;;;;;;;15.65;5.08;;;;;;;4.75;59.34;99146.84;1757570;80;21123;-38
2022/02/20 08:12:53;;;;;;;11.20;5.75;;;;;;;4.88;56.68;99133.51;1763540;80;21035;-38
2022/02/20 08:15:20;;;;;;;16.77;5.45;;;;;;;4.97;55.83;99126.17;1766780;79;21038;-37
2022/02/20 08:17:47;;;;;;;10.88;4.22;;;;;;;5.06;55.36;99137.63;1748402;80;21106;-37
2022/02/20 08:20:15;;;;;;;7.60;4.10;;;;;;;5.16;55.71;99143.95;1725147;81;21029;-38
2022/02/20 08:22:42;;;;;;;10.35;4.00;;;;;;;5.26;55.32;99146.25;1727272;81;21130;-38
2022/02/20 08:25:10;;;;;;;10.25;4.00;;;;;;;5.37;54.60;99142.05;1724394;81;21024;-38
2022/02/20 08:27:38;;;;;;;6.87;3.08;;;;;;;5.49;54.39;99139.39;1723426;81;21570;-38
2022/02/20 08:30:10;;;;;;;8.93;3.90;;;;;;;5.62;53.58;99142.34;1725298;80;21029;-38
2022/02/20 08:32:36;;;;;;;9.00;3.77;;;;;;;5.70;53.38;99143.39;1730314;81;21617;-39
2022/02/20 08:35:08;;;;;;;7.47;3.60;;;;;;;5.79;53.73;99144.64;1745656;81;21148;-39
2022/02/20 08:37:42;;;;;;;12.13;3.67;;;;;;;5.89;52.61;99153.11;1732831;81;20965;-39
2022/02/20 08:40:12;;;;;;;9.73;4.17;;;;;;;5.95;52.86;99151.00;1729547;80;21040;-38
2022/02/20 08:42:38;;;;;;;6.37;3.30;;;;;;;6.01;52.56;99148.29;1751267;81;21023;-38
2022/02/20 08:45:08;;;;;;;7.83;3.37;;;;;;;6.08;51.99;99145.30;1739649;80;20957;-38
2022/02/20 08:47:36;;;;;;;9.30;3.80;;;;;;;6.15;52.09;99148.00;1764260;80;21882;-39
2022/02/20 08:50:05;;;;;;;8.03;3.27;;;;;;;6.19;51.50;99136.78;1735502;80;20972;-38
2022/02/20 08:52:33;;;;;;;9.85;3.77;;;;;;;6.23;51.75;99145.20;1728814;80;21052;-38
2022/02/20 08:55:00;;;;;;;7.75;3.55;;;;;;;6.28;51.35;99130.17;1739868;81;21583;-38
2022/02/20 08:57:26;;;;;;;9.60;3.90;;;;;;;6.35;51.68;99142.50;1751873;81;21068;-38
2022/02/20 08:59:55;;;;;;;8.85;3.37;;;;;;;6.42;51.62;99148.13;1752006;81;22227;-38
2022/02/20 09:02:21;;;;;;;8.83;3.95;;;;;;;6.51;50.72;99143.41;1736637;81;20990;-39
2022/02/20 09:04:49;;;;;;;6.95;3.40;;;;;;;6.59;50.74;99153.03;1728100;81;21004;-38
2022/02/20 09:07:16;;;;;;;13.50;3.65;;;;;;;6.60;50.04;99141.94;1732798;81;20985;-38
2022/02/20 09:09:43;;;;;;;8.00;3.58;;;;;;;6.68;50.29;99141.61;1752532;81;21487;-38
2022/02/20 09:12:10;;;;;;;9.18;3.62;;;;;;;6.79;50.57;99147.52;1752374;81;21131;-39
2022/02/20 09:14:37;;;;;;;8.15;3.45;;;;;;;6.89;49.76;99165.13;1735749;81;20977;-39
2022/02/20 09:17:06;;;;;;;7.07;4.17;;;;;;;6.91;49.25;99156.95;1723623;81;20964;-38
2022/02/20 09:19:33;;;;;;;9.18;3.85;;;;;;;6.91;50.25;99152.12;1743619;81;20934;-39
2022/02/20 09:21:59;;;;;;;8.20;3.72;;;;;;;6.92;49.99;99156.39;1743441;81;21707;-39
2022/02/20 09:24:26;;;;;;;8.65;4.12;;;;;;;6.98;49.78;99152.31;1727994;81;21783;-39
2022/02/20 09:26:54;;;;;;;5.90;3.62;;;;;;;7.10;49.80;99156.91;1746217;81;20989;-39
2022/02/20 09:29:22;;;;;;;6.47;3.27;;;;;;;7.20;48.45;99149.13;1733043;81;20925;-39
2022/02/20 09:31:49;;;;;;;9.58;3.95;;;;;;;7.26;48.43;99158.53;1752475;81;21061;-39
2022/02/20 09:34:15;;;;;;;9.18;4.22;;;;;;;7.31;48.54;99149.44;1728696;81;21061;-39
2022/02/20 09:36:43;;;;;;;8.83;4.40;;;;;;;7.39;48.51;99147.94;1736964;81;21542;-39
2022/02/20 09:39:09;;;;;;;9.48;4.20;;;;;;;7.53;49.05;99142.70;1733906;81;21016;-39
2022/02/20 09:41:36;;;;;;;8.20;3.77;;;;;;;7.66;47.55;99140.16;1738345;81;20976;-39
2022/02/20 09:44:04;;;;;;;8.75;4.05;;;;;;;7.75;47.51;99140.23;1734067;81;20977;-39
2022/02/20 09:46:30;;;;;;;9.60;3.75;;;;;;;7.86;47.86;99144.56;1738281;82;21090;-39
2022/02/20 09:48:59;;;;;;;9.43;3.92;;;;;;;7.93;47.02;99134.52;1720513;82;21150;-39
2022/02/20 09:51:28;;;;;;;7.12;3.55;;;;;;;8.03;47.45;99133.45;1711030;82;21637;-40
2022/02/20 09:53:58;;;;;;;9.53;3.70;;;;;;;8.19;47.12;99126.11;1717129;82;21005;-40
2022/02/20 09:56:26;;;;;;;11.90;3.72;;;;;;;8.29;46.89;99128.86;1737295;82;21073;-39
2022/02/20 09:58:55;;;;;;;7.95;3.37;;;;;;;8.36;45.60;99129.63;1722432;82;21049;-39
2022/02/20 10:01:21;;;;;;;6.83;3.30;;;;;;;8.38;46.18;99126.00;1730408;81;21589;-39
2022/02/20 10:03:49;;;;;;;7.67;3.67;;;;;;;8.40;45.07;99121.04;1716812;82;21559;-39
2022/02/20 10:06:21;;;;;;;7.60;3.70;;;;;;;8.44;46.17;99136.77;1730838;82;21093;-38
2022/02/20 10:08:51;;;;;;;6.75;3.45;;;;;;;8.44;45.45;99123.25;1718521;82;21092;-38
2022/02/20 10:11:29;;;;;;;7.40;3.55;;;;;;;8.39;45.83;99122.95;1731355;81;21034;-39
2022/02/20 10:14:15;;;;;;;9.03;3.62;;;;;;;8.40;46.26;99123.74;1735921;81;21517;-39
2022/02/20 10:16:42;;;;;;;8.70;3.27;;;;;;;8.47;44.66;99125.27;1707129;81;21061;-39
2022/02/20 10:19:28;;;;;;;9.38;3.47;;;;;;;8.47;44.25;99113.88;1713662;82;21014;-39
2022/02/20 10:22:04;;;;;;;11.03;3.90;;;;;;;8.44;44.77;99112.45;1711239;80;21054;-39
2022/02/20 10:25:08;;;;;;;8.45;3.87;;;;;;;8.48;45.39;99111.95;1715340;82;20999;-38
2022/02/20 10:27:54;;;;;;;8.25;3.87;;;;;;;8.57;45.90;99110.63;1721536;81;21815;-38
2022/02/20 10:30:27;;;;;;;12.13;5.22;;;;;;;8.68;43.69;99093.31;1728579;81;21073;-38
2022/02/20 10:33:22;;;;;;;9.88;5.72;;;;;;;8.72;43.78;99096.87;1723228;80;21511;-38
2022/02/20 10:35:51;;;;;;;10.45;4.70;;;;;;;8.76;44.27;99095.62;1709992;82;21093;-39
2022/02/20 10:38:24;;;;;;;11.73;5.05;;;;;;;8.85;44.25;99092.14;1729606;82;21088;-39
2022/02/20 10:40:55;;;;;;;11.57;4.47;;;;;;;8.88;45.58;99088.16;1714573;82;22242;-39
2022/02/20 10:43:34;;;;;;;11.50;5.35;;;;;;;8.94;43.37;99082.69;1713632;82;21005;-38
2022/02/20 10:46:20;;;;;;;10.18;5.00;;;;;;;9.01;43.76;99066.59;1721426;81;21032;-38
2022/02/20 10:48:49;;;;;;;8.10;4.00;;;;;;;9.05;44.16;99071.50;1711426;82;21044;-39
2022/02/20 10:51:19;;;;;;;8.83;4.35;;;;;;;9.18;44.89;99060.55;1710465;82;23981;-39
2022/02/20 10:53:50;;;;;;;8.35;4.00;;;;;;;9.26;45.08;99058.19;1719905;82;21790;-38
2022/02/20 10:56:17;;;;;;;7.08;3.60;;;;;;;9.22;43.85;99046.52;1725144;82;21014;-38
2022/02/20 10:58:49;;;;;;;8.95;3.55;;;;;;;9.10;44.10;99056.94;1709709;82;21476;-38
2022/02/20 11:01:25;;;;;;;10.35;3.90;;;;;;;9.08;44.68;99053.80;1723885;82;21046;-40
2022/02/20 11:04:14;;;;;;;9.63;3.20;;;;;;;9.12;44.78;99041.91;1725217;81;21022;-41
2022/02/20 11:06:38;;;;;;;7.03;3.67;;;;;;;9.17;44.32;99062.47;1708605;82;21050;-41
2022/02/20 11:09:08;;;;;;;9.73;3.83;;;;;;;9.14;43.68;99045.62;1718954;82;20915;-40
2022/02/20 11:11:37;;;;;;;7.53;3.92;;;;;;;9.09;43.71;99023.70;1709826;82;21017;-41
2022/02/20 11:14:14;;;;;;;8.37;3.90;;;;;;;9.18;44.56;99038.91;1710023;82;21031;-41
2022/02/20 11:16:47;;;;;;;8.20;3.70;;;;;;;9.32;44.44;99016.19;1709508;82;21084;-40
2022/02/20 11:19:20;;;;;;;8.50;3.55;;;;;;;9.45;44.66;99021.62;1715716;82;21148;-41
2022/02/20 11:21:54;;;;;;;7.12;3.65;;;;;;;9.56;43.32;99019.91;1751140;81;21079;-41
2022/02/20 11:24:20;;;;;;;9.38;3.62;;;;;;;9.59;44.35;99022.66;1741938;81;21105;-40
2022/02/20 11:26:47;;;;;;;8.70;4.10;;;;;;;9.65;43.40;99023.15;1754490;81;20965;-41
2022/02/20 11:29:15;;;;;;;7.37;3.40;;;;;;;9.66;42.56;99018.52;1734014;81;20897;-41
2022/02/20 11:31:44;;;;;;;7.78;3.62;;;;;;;9.65;43.13;99001.50;1732669;81;21911;-41
2022/02/20 11:34:11;;;;;;;8.48;3.40;;;;;;;9.70;42.63;99003.12;1804316;79;20929;-40
2022/02/20 11:36:37;;;;;;;7.75;3.80;;;;;;;9.72;41.61;98997.56;1788871;79;21016;-41
2022/02/20 11:39:10;;;;;;;7.62;3.37;;;;;;;9.70;42.37;99001.20;1764994;79;21049;-41
2022/02/20 11:41:39;;;;;;;9.73;3.42;;;;;;;9.62;41.78;98991.41;1782660;78;21068;-40
2022/02/20 11:44:17;;;;;;;8.55;3.60;;;;;;;9.54;43.19;98997.82;1776954;79;21082;-41
2022/02/20 11:46:51;;;;;;;9.38;3.85;;;;;;;9.51;42.35;98996.63;1791656;79;21012;-41
2022/02/20 11:49:26;;;;;;;7.85;3.50;;;;;;;9.43;43.06;98992.81;1790879;79;20953;-41
2022/02/20 11:52:03;;;;;;;6.80;3.47;;;;;;;9.27;43.77;98988.08;1787884;79;21037;-40
2022/02/20 11:54:40;;;;;;;9.03;3.40;;;;;;;8.99;43.45;98989.70;1793483;77;21870;-41
2022/02/20 11:57:22;;;;;;;8.05;3.33;;;;;;;8.73;44.33;98986.28;1794081;79;21820;-42